createdAt,value
2022-09-17T00:01:41.797Z,2.03
2022-09-17T00:04:11.232Z,2.13
2022-09-17T00:06:38.843Z,2.57
2022-09-17T00:09:07.943Z,2.40
2022-09-17T00:11:39.497Z,3.13
2022-09-17T00:14:09.358Z,2.00
2022-09-17T00:16:39.021Z,1.97
2022-09-17T00:19:10.170Z,2.13
2022-09-17T00:21:37.928Z,2.03
2022-09-17T00:24:07.710Z,2.10
2022-09-17T00:26:37.062Z,2.43
2022-09-17T00:29:06.187Z,2.20
2022-09-17T00:31:34.474Z,1.90
2022-09-17T00:34:03.911Z,1.70
2022-09-17T00:36:35.051Z,2.13
2022-09-17T00:39:03.264Z,1.60
2022-09-17T00:41:33.644Z,1.73
2022-09-17T00:44:03.380Z,2.10
2022-09-17T00:46:36.899Z,1.80
2022-09-17T00:49:08.651Z,1.80
2022-09-17T00:51:59.612Z,1.53
2022-09-17T00:54:28.732Z,2.07
2022-09-17T00:56:59.809Z,2.00
2022-09-17T00:59:27.825Z,1.70
2022-09-17T01:01:55.948Z,2.17
2022-09-17T01:04:25.727Z,1.90
2022-09-17T01:07:04.130Z,1.80
2022-09-17T01:09:41.925Z,2.20
2022-09-17T01:12:23.603Z,2.17
2022-09-17T01:15:03.221Z,2.17
2022-09-17T01:17:39.877Z,2.47
2022-09-17T01:20:37.915Z,2.10
2022-09-17T01:23:37.793Z,2.30
2022-09-17T01:26:27.190Z,1.93
2022-09-17T01:29:02.493Z,2.33
2022-09-17T01:31:36.199Z,2.20
2022-09-17T01:34:14.372Z,1.57
2022-09-17T01:36:52.159Z,1.80
2022-09-17T01:39:31.899Z,1.43
2022-09-17T01:42:11.318Z,1.70
2022-09-17T01:44:46.887Z,1.30
2022-09-17T01:47:21.314Z,2.00
2022-09-17T01:49:52.010Z,1.73
2022-09-17T01:52:21.105Z,1.40
2022-09-17T01:54:52.418Z,1.60
2022-09-17T01:57:29.138Z,1.70
2022-09-17T02:00:01.048Z,1.77
2022-09-17T02:02:34.765Z,1.60
2022-09-17T02:05:06.291Z,1.70
2022-09-17T02:07:41.779Z,1.67
2022-09-17T02:10:13.542Z,1.70
2022-09-17T02:12:44.709Z,1.47
2022-09-17T02:15:15.337Z,1.60
2022-09-17T02:17:50.557Z,1.60
2022-09-17T02:20:23.077Z,1.80
2022-09-17T02:22:57.594Z,1.70
2022-09-17T02:25:31.145Z,1.30
2022-09-17T02:28:03.629Z,1.57
2022-09-17T02:30:32.102Z,1.70
2022-09-17T02:33:03.637Z,1.47
2022-09-17T02:35:32.032Z,1.97
2022-09-17T02:37:59.838Z,1.90
2022-09-17T02:40:33.135Z,1.93
2022-09-17T02:43:11.126Z,1.53
2022-09-17T02:45:52.606Z,1.67
2022-09-17T02:48:50.053Z,2.10
2022-09-17T02:51:30.427Z,1.63
2022-09-17T02:54:09.773Z,2.23
2022-09-17T02:56:46.198Z,1.90
2022-09-17T02:59:20.912Z,2.70
2022-09-17T03:01:55.598Z,2.10
2022-09-17T03:04:27.497Z,2.30
2022-09-17T03:06:56.564Z,1.63
2022-09-17T03:09:24.185Z,1.70
2022-09-17T03:11:51.803Z,1.40
2022-09-17T03:14:20.783Z,1.73
2022-09-17T03:16:48.801Z,2.23
2022-09-17T03:19:16.442Z,2.63
2022-09-17T03:21:45.755Z,2.03
2022-09-17T03:24:13.568Z,1.87
2022-09-17T03:26:41.089Z,1.67
2022-09-17T03:29:08.756Z,2.53
2022-09-17T03:31:36.380Z,2.57
2022-09-17T03:34:04.133Z,2.30
2022-09-17T03:36:32.015Z,2.23
2022-09-17T03:39:02.246Z,2.13
2022-09-17T03:41:32.132Z,2.53
2022-09-17T03:43:59.713Z,2.30
2022-09-17T03:46:29.734Z,2.50
2022-09-17T03:48:57.382Z,2.30
2022-09-17T03:51:25.019Z,2.20
2022-09-17T03:53:52.618Z,1.90
2022-09-17T03:56:21.538Z,2.20
2022-09-17T03:58:49.323Z,2.33
2022-09-17T04:01:17.029Z,2.67
2022-09-17T04:03:45.900Z,2.80
2022-09-17T04:06:13.420Z,2.60
2022-09-17T04:08:41.006Z,2.50
2022-09-17T04:11:08.797Z,2.83
2022-09-17T04:13:37.742Z,3.00
2022-09-17T04:16:06.665Z,2.67
2022-09-17T04:18:35.452Z,2.90
2022-09-17T04:21:03.715Z,2.50
2022-09-17T04:23:31.289Z,3.10
2022-09-17T04:25:58.835Z,2.27
2022-09-17T04:28:26.435Z,2.63
2022-09-17T04:30:55.448Z,2.60
2022-09-17T04:33:23.077Z,3.13
2022-09-17T04:35:50.716Z,2.90
2022-09-17T04:38:20.530Z,2.40
2022-09-17T04:40:48.180Z,3.03
2022-09-17T04:43:15.966Z,3.63
2022-09-17T04:45:46.552Z,2.33
2022-09-17T04:48:15.791Z,5.47
2022-09-17T04:50:43.428Z,2.50
2022-09-17T04:53:11.093Z,3.17
2022-09-17T04:55:38.807Z,2.10
2022-09-17T04:58:06.853Z,2.53
2022-09-17T05:00:35.313Z,3.07
2022-09-17T05:03:07.128Z,2.80
2022-09-17T05:05:36.501Z,2.90
2022-09-17T05:08:04.197Z,2.80
2022-09-17T05:10:33.381Z,2.77
2022-09-17T05:13:02.107Z,2.83
2022-09-17T05:15:29.708Z,3.40
2022-09-17T05:17:57.295Z,3.00
2022-09-17T05:20:24.870Z,3.67
2022-09-17T05:22:53.933Z,3.10
2022-09-17T05:25:24.125Z,2.60
2022-09-17T05:27:52.276Z,3.03
2022-09-17T05:30:20.165Z,2.80
2022-09-17T05:32:48.182Z,2.80
2022-09-17T05:35:16.156Z,2.77
2022-09-17T05:37:43.721Z,3.13
2022-09-17T05:40:12.903Z,2.57
2022-09-17T05:42:40.845Z,2.93
2022-09-17T05:45:09.397Z,3.00
2022-09-17T05:47:37.116Z,3.63
2022-09-17T05:50:05.191Z,3.87
2022-09-17T05:52:32.776Z,3.70
2022-09-17T05:55:00.507Z,2.67
2022-09-17T05:57:31.257Z,3.20
2022-09-17T05:59:58.950Z,3.33
2022-09-17T06:02:26.635Z,3.10
2022-09-17T06:04:54.190Z,3.20
2022-09-17T06:07:21.796Z,3.30
2022-09-17T06:09:49.383Z,3.80
2022-09-17T06:12:17.104Z,4.80
2022-09-17T06:14:46.239Z,3.10
2022-09-17T06:17:13.866Z,2.67
2022-09-17T06:19:41.416Z,2.73
2022-09-17T06:22:09.152Z,6.30
2022-09-17T06:24:36.755Z,2.40
2022-09-17T06:27:04.990Z,2.67
2022-09-17T06:29:32.608Z,2.83
2022-09-17T06:32:02.823Z,2.20
2022-09-17T06:34:30.529Z,2.27
2022-09-17T06:36:58.086Z,2.60
2022-09-17T06:39:25.804Z,2.60
2022-09-17T06:41:53.547Z,2.73
2022-09-17T06:44:21.162Z,3.00
2022-09-17T06:46:51.097Z,4.07
2022-09-17T06:49:20.234Z,2.57
2022-09-17T06:51:47.767Z,2.50
2022-09-17T06:54:15.293Z,2.33
2022-09-17T06:56:42.816Z,2.30
2022-09-17T06:59:10.427Z,2.70
2022-09-17T07:01:38.042Z,2.93
2022-09-17T07:04:05.697Z,2.60
2022-09-17T07:06:34.640Z,3.03
2022-09-17T07:09:02.197Z,2.50
2022-09-17T07:11:30.807Z,3.10
2022-09-17T07:13:59.051Z,2.90
2022-09-17T07:16:28.163Z,3.07
2022-09-17T07:18:55.795Z,3.43
2022-09-17T07:21:23.458Z,3.27
2022-09-17T07:23:53.058Z,3.03
2022-09-17T07:26:20.721Z,3.00
2022-09-17T07:28:48.448Z,3.13
2022-09-17T07:31:17.059Z,3.23
2022-09-17T07:33:45.124Z,3.33
2022-09-17T07:36:14.781Z,2.87
2022-09-17T07:38:42.474Z,3.73
2022-09-17T07:41:13.363Z,3.50
2022-09-17T07:43:42.923Z,3.13
2022-09-17T07:46:15.103Z,3.17
2022-09-17T07:48:43.008Z,3.70
2022-09-17T07:51:16.441Z,2.57
2022-09-17T07:53:43.956Z,2.90
2022-09-17T07:56:13.727Z,2.80
2022-09-17T07:58:42.319Z,2.87
2022-09-17T08:01:15.326Z,3.10
2022-09-17T08:03:44.178Z,3.23
2022-09-17T08:06:13.454Z,3.60
2022-09-17T08:08:41.483Z,2.97
2022-09-17T08:11:11.169Z,3.20
2022-09-17T08:13:40.400Z,3.23
2022-09-17T08:16:10.267Z,3.03
2022-09-17T08:18:38.508Z,3.37
2022-09-17T08:21:08.459Z,3.10
2022-09-17T08:23:37.890Z,2.70
2022-09-17T08:26:08.453Z,3.40
2022-09-17T08:28:36.721Z,2.63
2022-09-17T08:31:08.190Z,3.07
2022-09-17T08:33:38.082Z,3.17
2022-09-17T08:36:07.174Z,3.20
2022-09-17T08:38:38.341Z,3.57
2022-09-17T08:41:20.324Z,3.33
2022-09-17T08:43:58.005Z,3.50
2022-09-17T08:46:27.520Z,3.00
2022-09-17T08:49:03.095Z,3.60
2022-09-17T08:51:44.695Z,2.57
2022-09-17T08:54:17.551Z,2.70
2022-09-17T08:56:46.782Z,2.93
2022-09-17T08:59:26.538Z,2.50
2022-09-17T09:02:04.365Z,2.60
2022-09-17T09:04:58.853Z,2.17
2022-09-17T09:07:31.217Z,2.50
2022-09-17T09:10:12.346Z,3.70
2022-09-17T09:12:41.192Z,4.80
2022-09-17T09:15:22.874Z,2.80
2022-09-17T09:17:53.730Z,3.83
2022-09-17T09:20:32.108Z,3.10
2022-09-17T09:23:04.311Z,8.37
2022-09-17T09:25:36.151Z,2.70
2022-09-17T09:28:18.922Z,2.40
2022-09-17T09:31:09.115Z,2.87
2022-09-17T09:33:47.055Z,2.80
2022-09-17T09:36:21.557Z,2.70
2022-09-17T09:38:54.022Z,2.90
2022-09-17T09:41:28.303Z,2.40
2022-09-17T09:44:05.028Z,2.20
2022-09-17T09:46:59.552Z,2.50
2022-09-17T09:49:55.077Z,2.47
2022-09-17T09:52:37.211Z,2.07
2022-09-17T09:55:25.862Z,1.77
2022-09-17T09:58:00.440Z,2.47
2022-09-17T10:00:32.854Z,1.57
2022-09-17T10:03:06.026Z,2.57
2022-09-17T10:05:35.766Z,2.17
2022-09-17T10:08:12.507Z,2.40
2022-09-17T10:10:55.795Z,2.30
2022-09-17T10:13:29.055Z,2.00
2022-09-17T10:16:08.833Z,1.90
2022-09-17T10:18:37.014Z,1.70
2022-09-17T10:21:20.638Z,1.77
2022-09-17T10:23:49.225Z,1.83
2022-09-17T10:26:25.661Z,2.20
2022-09-17T10:28:56.029Z,2.50
2022-09-17T10:31:24.274Z,2.17
2022-09-17T10:33:57.923Z,2.00
2022-09-17T10:36:44.152Z,2.00
2022-09-17T10:39:31.212Z,2.00
2022-09-17T10:42:01.181Z,2.87
2022-09-17T10:44:30.677Z,2.20
2022-09-17T10:47:05.448Z,2.03
2022-09-17T10:49:38.858Z,2.00
2022-09-17T10:52:15.191Z,2.40
2022-09-17T10:55:06.823Z,3.07
2022-09-17T10:57:58.503Z,2.50
2022-09-17T11:00:35.861Z,2.27
2022-09-17T11:03:33.266Z,2.80
2022-09-17T11:06:25.737Z,1.70
2022-09-17T11:09:06.828Z,2.03
2022-09-17T11:11:45.740Z,2.13
2022-09-17T11:14:36.042Z,1.73
2022-09-17T11:17:13.108Z,2.00
2022-09-17T11:19:51.876Z,1.80
2022-09-17T11:22:24.732Z,2.37
2022-09-17T11:25:04.284Z,1.60
2022-09-17T11:27:47.051Z,1.93
2022-09-17T11:30:19.260Z,1.80
2022-09-17T11:33:00.504Z,2.30
2022-09-17T11:35:31.914Z,1.47
2022-09-17T11:38:04.890Z,1.87
2022-09-17T11:40:40.274Z,1.70
2022-09-17T11:43:18.295Z,1.57
2022-09-17T11:45:57.483Z,1.67
2022-09-17T11:48:32.884Z,1.40
2022-09-17T11:51:08.316Z,1.90
2022-09-17T11:53:42.150Z,1.20
2022-09-17T11:56:18.516Z,1.53
2022-09-17T11:58:52.634Z,1.17
2022-09-17T12:01:27.362Z,1.27
2022-09-17T12:04:00.609Z,1.10
2022-09-17T12:06:37.409Z,1.87
2022-09-17T12:09:11.816Z,1.30
2022-09-17T12:11:45.531Z,1.80
2022-09-17T12:14:18.817Z,1.80
2022-09-17T12:16:50.495Z,1.57
2022-09-17T12:19:25.361Z,1.67
2022-09-17T12:21:57.218Z,1.67
2022-09-17T12:24:26.825Z,1.33
2022-09-17T12:27:18.911Z,1.40
2022-09-17T12:30:05.849Z,1.10
2022-09-17T12:32:48.720Z,1.23
2022-09-17T12:35:59.744Z,1.20
2022-09-17T12:38:35.233Z,1.40
2022-09-17T12:41:11.888Z,2.03
2022-09-17T12:44:02.222Z,1.50
2022-09-17T12:46:48.024Z,1.50
2022-09-17T12:49:38.407Z,1.20
2022-09-17T12:52:15.251Z,4.67
2022-09-17T12:55:00.206Z,3.00
2022-09-17T12:57:36.596Z,1.80
2022-09-17T13:00:08.427Z,1.70
2022-09-17T13:02:42.717Z,1.30
2022-09-17T13:05:43.921Z,1.73
2022-09-17T13:08:35.167Z,1.90
2022-09-17T13:11:55.000Z,1.63
2022-09-17T13:14:32.553Z,1.30
2022-09-17T13:17:06.373Z,1.30
2022-09-17T13:19:41.470Z,1.40
2022-09-17T13:22:17.311Z,0.90
2022-09-17T13:24:49.021Z,1.37
2022-09-17T13:27:23.343Z,2.07
2022-09-17T13:30:01.931Z,1.60
2022-09-17T13:32:48.930Z,1.60
2022-09-17T13:35:51.399Z,1.40
2022-09-17T13:38:23.806Z,1.30
2022-09-17T13:40:53.153Z,1.30
2022-09-17T13:43:26.783Z,1.47
2022-09-17T13:46:15.571Z,1.80
2022-09-17T13:48:53.025Z,1.27
2022-09-17T13:51:55.092Z,1.43
2022-09-17T13:54:36.072Z,1.23
2022-09-17T13:57:11.313Z,1.07
2022-09-17T13:59:39.530Z,1.03
2022-09-17T14:02:37.345Z,1.10
2022-09-17T14:05:35.564Z,1.43
2022-09-17T14:08:15.134Z,1.70
2022-09-17T14:10:45.042Z,1.40
2022-09-17T14:13:28.813Z,1.20
2022-09-17T14:16:05.006Z,1.87
2022-09-17T14:18:59.014Z,1.10
2022-09-17T14:21:31.488Z,1.53
2022-09-17T14:24:02.151Z,1.00
2022-09-17T14:26:49.530Z,1.10
2022-09-17T14:29:47.000Z,1.00
2022-09-17T14:32:21.656Z,1.00
2022-09-17T14:34:50.707Z,1.30
2022-09-17T14:37:22.730Z,1.23
2022-09-17T14:39:52.712Z,0.80
2022-09-17T14:42:24.360Z,1.17
2022-09-17T14:44:59.834Z,1.00
2022-09-17T14:47:27.961Z,1.13
2022-09-17T14:49:55.822Z,0.90
2022-09-17T14:52:40.180Z,0.70
2022-09-17T14:55:17.117Z,0.80
2022-09-17T14:57:46.254Z,0.83
2022-09-17T15:00:25.535Z,0.87
2022-09-17T15:02:55.868Z,1.13
2022-09-17T15:05:27.187Z,1.23
2022-09-17T15:08:12.807Z,1.30
2022-09-17T15:10:47.948Z,1.30
2022-09-17T15:13:18.149Z,1.90
2022-09-17T15:15:54.353Z,0.87
2022-09-17T15:18:25.117Z,1.57
2022-09-17T15:20:56.632Z,1.80
2022-09-17T15:23:29.092Z,1.30
2022-09-17T15:25:59.906Z,1.20
2022-09-17T15:28:32.707Z,0.90
2022-09-17T15:31:00.629Z,1.30
2022-09-17T15:33:30.149Z,1.20
2022-09-17T15:36:07.806Z,1.00
2022-09-17T15:38:39.165Z,1.10
2022-09-17T15:41:28.477Z,1.10
2022-09-17T15:44:28.543Z,0.90
2022-09-17T15:46:57.829Z,1.00
2022-09-17T15:49:30.477Z,1.10
2022-09-17T15:52:32.699Z,1.30
2022-09-17T15:55:02.270Z,1.23
2022-09-17T15:57:32.928Z,1.20
2022-09-17T16:00:08.811Z,1.00
2022-09-17T16:02:36.723Z,1.37
2022-09-17T16:05:55.777Z,1.10
2022-09-17T16:08:25.367Z,0.83
2022-09-17T16:10:54.778Z,0.93
2022-09-17T16:13:27.882Z,1.17
2022-09-17T16:15:56.738Z,1.20
2022-09-17T16:18:26.690Z,1.17
2022-09-17T16:20:54.339Z,1.00
2022-09-17T16:23:22.528Z,1.00
2022-09-17T16:25:52.959Z,1.33
2022-09-17T16:28:22.023Z,1.13
2022-09-17T16:30:51.767Z,0.90
2022-09-17T16:33:20.035Z,1.47
2022-09-17T16:35:48.912Z,1.77
2022-09-17T16:38:16.903Z,1.43
2022-09-17T16:40:47.137Z,1.00
2022-09-17T16:43:19.476Z,1.10
2022-09-17T16:46:00.359Z,1.40
2022-09-17T16:48:28.236Z,1.10
2022-09-17T16:50:55.891Z,0.90
2022-09-17T16:53:23.567Z,1.30
2022-09-17T16:55:51.497Z,1.33
2022-09-17T16:58:19.243Z,1.40
2022-09-17T17:00:47.299Z,1.23
2022-09-17T17:03:17.025Z,1.73
2022-09-17T17:05:44.718Z,1.10
2022-09-17T17:08:14.449Z,1.77
2022-09-17T17:10:42.112Z,2.13
2022-09-17T17:13:11.746Z,2.50
2022-09-17T17:15:42.670Z,1.40
2022-09-17T17:18:10.501Z,1.60
2022-09-17T17:20:40.604Z,1.10
2022-09-17T17:23:08.417Z,1.57
2022-09-17T17:25:36.277Z,1.20
2022-09-17T17:28:03.881Z,1.10
2022-09-17T17:30:35.039Z,1.10
2022-09-17T17:33:03.923Z,0.90
2022-09-17T17:35:31.736Z,1.53
2022-09-17T17:38:00.717Z,1.20
2022-09-17T17:40:30.759Z,1.20
2022-09-17T17:42:58.908Z,1.17
2022-09-17T17:45:26.618Z,1.23
2022-09-17T17:47:54.612Z,1.40
2022-09-17T17:50:23.884Z,1.03
2022-09-17T17:52:54.622Z,1.47
2022-09-17T17:55:23.642Z,1.03
2022-09-17T17:58:00.867Z,1.20
2022-09-17T18:00:29.333Z,1.50
2022-09-17T18:02:57.150Z,1.33
2022-09-17T18:05:24.867Z,1.40
2022-09-17T18:07:52.644Z,1.13
2022-09-17T18:10:20.910Z,1.73
2022-09-17T18:12:51.252Z,1.20
2022-09-17T18:15:19.176Z,1.57
2022-09-17T18:17:49.918Z,1.80
2022-09-17T18:20:18.218Z,2.00
2022-09-17T18:22:45.982Z,1.80
2022-09-17T18:25:13.709Z,2.40
2022-09-17T18:27:42.382Z,3.20
2022-09-17T18:30:14.751Z,1.93
2022-09-17T18:32:42.428Z,2.73
2022-09-17T18:35:10.182Z,2.23
2022-09-17T18:37:37.958Z,2.20
2022-09-17T18:40:06.490Z,1.80
2022-09-17T18:42:34.384Z,2.30
2022-09-17T18:45:02.168Z,1.70
2022-09-17T18:47:31.130Z,1.50
2022-09-17T18:49:59.032Z,2.17
2022-09-17T18:52:26.847Z,1.60
2022-09-17T18:54:54.477Z,1.30
2022-09-17T18:57:22.200Z,1.70
2022-09-17T18:59:49.898Z,1.63
2022-09-17T19:02:17.592Z,1.40
2022-09-17T19:04:46.662Z,1.20
2022-09-17T19:07:14.383Z,1.40
2022-09-17T19:09:42.237Z,1.67
2022-09-17T19:12:09.901Z,1.50
2022-09-17T19:14:37.642Z,2.03
2022-09-17T19:17:05.418Z,2.03
2022-09-17T19:19:32.995Z,2.63
2022-09-17T19:22:02.093Z,2.30
2022-09-17T19:24:29.768Z,2.53
2022-09-17T19:27:01.548Z,2.17
2022-09-17T19:29:29.121Z,2.20
2022-09-17T19:31:56.757Z,2.10
2022-09-17T19:34:24.585Z,2.47
2022-09-17T19:36:52.239Z,1.57
2022-09-17T19:39:21.246Z,1.50
2022-09-17T19:41:48.892Z,2.70
2022-09-17T19:44:16.493Z,1.67
2022-09-17T19:46:44.103Z,2.10
2022-09-17T19:49:15.788Z,1.93
2022-09-17T19:51:43.397Z,1.70
2022-09-17T19:54:11.572Z,2.57
2022-09-17T19:56:40.491Z,2.23
2022-09-17T19:59:08.520Z,2.20
2022-09-17T20:01:36.230Z,1.90
2022-09-17T20:04:04.205Z,2.00
2022-09-17T20:06:34.191Z,1.67
2022-09-17T20:09:01.783Z,1.60
2022-09-17T20:11:29.433Z,1.37
2022-09-17T20:13:59.460Z,1.83
2022-09-17T20:16:27.494Z,1.67
2022-09-17T20:18:55.223Z,1.70
2022-09-17T20:21:24.886Z,3.47
2022-09-17T20:23:52.846Z,1.40
2022-09-17T20:26:20.629Z,2.47
2022-09-17T20:28:50.288Z,1.50
2022-09-17T20:31:21.227Z,1.40
2022-09-17T20:33:51.728Z,1.40
2022-09-17T20:36:20.901Z,2.30
2022-09-17T20:41:40.159Z,1.57
2022-09-17T20:44:08.266Z,1.70
2022-09-17T20:46:37.331Z,1.77
2022-09-17T20:49:05.359Z,1.60
2022-09-17T20:51:34.212Z,2.33
2022-09-17T20:54:02.832Z,1.50
2022-09-17T20:56:33.123Z,1.80
2022-09-17T20:59:08.295Z,2.40
2022-09-17T21:01:38.178Z,2.00
2022-09-17T21:04:07.635Z,1.60
2022-09-17T21:06:38.091Z,1.80
2022-09-17T21:09:07.195Z,2.40
2022-09-17T21:11:35.470Z,1.83
2022-09-17T21:14:05.147Z,1.53
2022-09-17T21:16:34.258Z,1.63
2022-09-17T21:19:05.525Z,1.80
2022-09-17T21:21:34.416Z,1.60
2022-09-17T21:24:02.996Z,1.57
2022-09-17T21:26:32.398Z,1.50
2022-09-17T21:28:59.993Z,1.83
2022-09-17T21:31:32.404Z,1.60
2022-09-17T21:34:03.597Z,1.60
2022-09-17T21:36:32.766Z,2.00
2022-09-17T21:39:02.307Z,1.80
2022-09-17T21:41:30.995Z,1.20
2022-09-17T21:43:59.264Z,1.60
2022-09-17T21:46:28.981Z,2.23
2022-09-17T21:48:59.950Z,1.20
2022-09-17T21:51:30.902Z,1.70
2022-09-17T21:54:00.408Z,1.67
2022-09-17T21:56:28.819Z,1.43
2022-09-17T21:58:58.813Z,2.00
2022-09-17T22:01:31.039Z,2.10
2022-09-17T22:04:00.012Z,2.10
2022-09-17T22:06:30.930Z,2.33
2022-09-17T22:09:00.643Z,1.87
2022-09-17T22:11:30.567Z,2.20
2022-09-17T22:14:00.833Z,1.60
2022-09-17T22:16:30.670Z,1.90
2022-09-17T22:18:59.550Z,1.87
2022-09-17T22:21:29.964Z,2.27
2022-09-17T22:23:59.498Z,2.07
2022-09-17T22:26:29.480Z,1.80
2022-09-17T22:29:01.250Z,2.20
2022-09-17T22:31:28.932Z,1.80
2022-09-17T22:33:56.616Z,1.80
2022-09-17T22:36:25.932Z,1.80
2022-09-17T22:38:56.373Z,1.60
2022-09-17T22:41:25.922Z,1.63
2022-09-17T22:43:54.320Z,2.00
2022-09-17T22:46:24.501Z,1.83
2022-09-17T22:48:52.170Z,1.93
2022-09-17T22:51:20.028Z,2.10
2022-09-17T22:53:47.540Z,2.17
2022-09-17T22:56:18.327Z,1.90
2022-09-17T22:58:46.006Z,1.90
2022-09-17T23:01:15.582Z,1.63
2022-09-17T23:03:44.389Z,1.60
2022-09-17T23:06:14.377Z,1.70
2022-09-17T23:08:42.489Z,2.00
2022-09-17T23:11:16.919Z,1.60
2022-09-17T23:13:45.864Z,1.93
2022-09-17T23:16:13.600Z,2.10
2022-09-17T23:18:41.643Z,2.00
2022-09-17T23:21:14.148Z,1.97
2022-09-17T23:23:45.413Z,1.83
2022-09-17T23:26:15.396Z,2.30
2022-09-17T23:28:43.199Z,1.97
2022-09-17T23:31:13.987Z,1.90
2022-09-17T23:33:42.358Z,2.20
2022-09-17T23:36:13.681Z,1.90
2022-09-17T23:38:42.457Z,1.93
2022-09-17T23:41:12.434Z,2.27
2022-09-17T23:43:40.129Z,1.90
2022-09-17T23:46:08.158Z,2.20
2022-09-17T23:48:37.202Z,2.17
2022-09-17T23:51:05.781Z,1.80
2022-09-17T23:53:35.301Z,2.17
2022-09-17T23:56:03.760Z,2.07
2022-09-17T23:58:31.833Z,2.10
